Maljamar, New Mexico
Current Conditions -  °F | °C
As of 10:50 AM on Thursday 29 Jan 2015 (Local Time) from KHOB Reporting Station
Clear Clear  
Wind Chill: 54°   Ceiling: Unl
Heat Index: 54°   Visibility: 10mi
Dew Point: 32°   Wind: 21mph
Humidity: 44%   Direction: 30°NNE
Pressure: 30.42"   Gusts: 30mph
Location:  32.86°N, 103.77°W
Report Text: KHOB 291750Z 03018G26KT 10SM SKC 12/00 A3042
Loading
Personal Weather Stations






























Interactive Weather Map New forecast layout! Learn more

10-Day Weather Forecast

Advertisements
Track Severe Weather on mobile